sensor_id;sensor_type;location;lat;lon;timestamp;P1;durP1;ratioP1;P2;durP2;ratioP2
7017;SDS011;3549;42.162;24.726;2023-05-16T00:02:15;71.23;;;38.63;;
7017;SDS011;3549;42.162;24.726;2023-05-16T00:04:40;69.57;;;37.10;;
7017;SDS011;3549;42.162;24.726;2023-05-16T00:07:06;66.90;;;36.67;;
7017;SDS011;3549;42.162;24.726;2023-05-16T00:09:32;74.80;;;38.33;;
7017;SDS011;3549;42.162;24.726;2023-05-16T00:11:57;76.27;;;38.27;;
7017;SDS011;3549;42.162;24.726;2023-05-16T00:14:23;75.40;;;37.90;;
7017;SDS011;3549;42.162;24.726;2023-05-16T00:16:50;73.70;;;37.73;;
7017;SDS011;3549;42.162;24.726;2023-05-16T00:19:17;76.27;;;38.67;;
7017;SDS011;3549;42.162;24.726;2023-05-16T00:21:42;76.20;;;38.90;;
7017;SDS011;3549;42.162;24.726;2023-05-16T00:24:08;74.83;;;38.83;;
7017;SDS011;3549;42.162;24.726;2023-05-16T00:26:34;77.20;;;38.43;;
7017;SDS011;3549;42.162;24.726;2023-05-16T00:28:59;74.87;;;38.33;;
7017;SDS011;3549;42.162;24.726;2023-05-16T00:31:26;82.23;;;38.73;;
7017;SDS011;3549;42.162;24.726;2023-05-16T00:33:52;74.50;;;38.93;;
7017;SDS011;3549;42.162;24.726;2023-05-16T00:36:17;74.97;;;38.90;;
7017;SDS011;3549;42.162;24.726;2023-05-16T00:38:43;73.27;;;38.70;;
7017;SDS011;3549;42.162;24.726;2023-05-16T00:41:08;77.27;;;39.60;;
7017;SDS011;3549;42.162;24.726;2023-05-16T00:43:34;79.23;;;40.27;;
7017;SDS011;3549;42.162;24.726;2023-05-16T00:45:59;74.67;;;39.30;;
7017;SDS011;3549;42.162;24.726;2023-05-16T00:48:25;74.53;;;38.57;;
7017;SDS011;3549;42.162;24.726;2023-05-16T00:50:50;76.70;;;39.23;;
7017;SDS011;3549;42.162;24.726;2023-05-16T00:53:17;76.00;;;38.60;;
7017;SDS011;3549;42.162;24.726;2023-05-16T00:55:43;80.87;;;39.90;;
7017;SDS011;3549;42.162;24.726;2023-05-16T00:58:10;77.30;;;38.70;;
7017;SDS011;3549;42.162;24.726;2023-05-16T01:00:35;73.80;;;39.47;;
7017;SDS011;3549;42.162;24.726;2023-05-16T01:03:03;77.13;;;39.33;;
7017;SDS011;3549;42.162;24.726;2023-05-16T01:05:29;78.07;;;39.63;;
7017;SDS011;3549;42.162;24.726;2023-05-16T01:07:55;81.27;;;39.83;;
7017;SDS011;3549;42.162;24.726;2023-05-16T01:10:20;79.33;;;38.77;;
7017;SDS011;3549;42.162;24.726;2023-05-16T01:15:55;80.17;;;40.13;;
7017;SDS011;3549;42.162;24.726;2023-05-16T01:21:18;87.47;;;43.23;;
7017;SDS011;3549;42.162;24.726;2023-05-16T01:24:13;84.83;;;40.93;;
7017;SDS011;3549;42.162;24.726;2023-05-16T01:26:56;82.23;;;41.17;;
7017;SDS011;3549;42.162;24.726;2023-05-16T01:29:23;83.80;;;42.00;;
7017;SDS011;3549;42.162;24.726;2023-05-16T01:31:49;84.07;;;41.47;;
7017;SDS011;3549;42.162;24.726;2023-05-16T01:34:15;82.77;;;42.60;;
7017;SDS011;3549;42.162;24.726;2023-05-16T01:41:48;78.53;;;40.90;;
7017;SDS011;3549;42.162;24.726;2023-05-16T01:44:28;78.70;;;40.37;;
7017;SDS011;3549;42.162;24.726;2023-05-16T01:46:58;85.13;;;41.57;;
7017;SDS011;3549;42.162;24.726;2023-05-16T01:49:37;81.53;;;41.00;;
7017;SDS011;3549;42.162;24.726;2023-05-16T01:52:10;81.53;;;40.53;;
7017;SDS011;3549;42.162;24.726;2023-05-16T01:54:41;79.30;;;41.13;;
7017;SDS011;3549;42.162;24.726;2023-05-16T01:57:09;79.20;;;41.13;;
7017;SDS011;3549;42.162;24.726;2023-05-16T01:59:37;85.33;;;42.67;;
7017;SDS011;3549;42.162;24.726;2023-05-16T02:02:03;85.43;;;42.33;;
7017;SDS011;3549;42.162;24.726;2023-05-16T02:04:29;87.70;;;42.67;;
7017;SDS011;3549;42.162;24.726;2023-05-16T02:06:55;88.70;;;42.23;;
7017;SDS011;3549;42.162;24.726;2023-05-16T02:09:21;88.73;;;42.33;;
7017;SDS011;3549;42.162;24.726;2023-05-16T02:11:46;84.70;;;42.63;;
7017;SDS011;3549;42.162;24.726;2023-05-16T02:14:12;81.90;;;42.63;;
7017;SDS011;3549;42.162;24.726;2023-05-16T02:16:37;82.90;;;42.03;;
7017;SDS011;3549;42.162;24.726;2023-05-16T02:19:03;85.13;;;41.97;;
7017;SDS011;3549;42.162;24.726;2023-05-16T02:21:28;77.83;;;40.77;;
7017;SDS011;3549;42.162;24.726;2023-05-16T02:23:54;87.00;;;43.00;;
7017;SDS011;3549;42.162;24.726;2023-05-16T02:26:19;87.33;;;43.03;;
7017;SDS011;3549;42.162;24.726;2023-05-16T02:28:45;89.40;;;42.87;;
7017;SDS011;3549;42.162;24.726;2023-05-16T02:31:13;91.20;;;44.13;;
7017;SDS011;3549;42.162;24.726;2023-05-16T02:33:50;93.60;;;44.03;;
7017;SDS011;3549;42.162;24.726;2023-05-16T02:36:15;87.23;;;43.10;;
7017;SDS011;3549;42.162;24.726;2023-05-16T02:38:40;89.27;;;43.07;;
7017;SDS011;3549;42.162;24.726;2023-05-16T02:41:06;92.03;;;43.53;;
7017;SDS011;3549;42.162;24.726;2023-05-16T02:43:31;82.43;;;42.13;;
7017;SDS011;3549;42.162;24.726;2023-05-16T02:45:56;89.70;;;43.07;;
7017;SDS011;3549;42.162;24.726;2023-05-16T02:48:22;87.93;;;43.20;;
7017;SDS011;3549;42.162;24.726;2023-05-16T02:50:47;91.40;;;43.73;;
7017;SDS011;3549;42.162;24.726;2023-05-16T02:53:13;95.97;;;43.20;;
7017;SDS011;3549;42.162;24.726;2023-05-16T02:55:38;94.47;;;43.53;;
7017;SDS011;3549;42.162;24.726;2023-05-16T02:58:03;96.20;;;44.63;;
7017;SDS011;3549;42.162;24.726;2023-05-16T03:00:29;98.00;;;44.67;;
7017;SDS011;3549;42.162;24.726;2023-05-16T03:02:54;99.37;;;44.50;;
7017;SDS011;3549;42.162;24.726;2023-05-16T03:05:20;96.70;;;46.80;;
7017;SDS011;3549;42.162;24.726;2023-05-16T03:07:45;98.90;;;45.67;;
7017;SDS011;3549;42.162;24.726;2023-05-16T03:10:10;104.77;;;48.17;;
7017;SDS011;3549;42.162;24.726;2023-05-16T03:12:36;114.50;;;51.40;;
7017;SDS011;3549;42.162;24.726;2023-05-16T03:15:01;116.53;;;50.47;;
7017;SDS011;3549;42.162;24.726;2023-05-16T03:17:28;108.63;;;50.30;;
7017;SDS011;3549;42.162;24.726;2023-05-16T03:19:53;105.47;;;49.37;;
7017;SDS011;3549;42.162;24.726;2023-05-16T03:22:19;101.10;;;46.67;;
7017;SDS011;3549;42.162;24.726;2023-05-16T03:24:44;98.43;;;44.90;;
7017;SDS011;3549;42.162;24.726;2023-05-16T03:27:10;96.43;;;43.60;;
7017;SDS011;3549;42.162;24.726;2023-05-16T03:29:36;97.60;;;43.63;;
7017;SDS011;3549;42.162;24.726;2023-05-16T03:32:01;106.93;;;45.30;;
7017;SDS011;3549;42.162;24.726;2023-05-16T03:34:27;105.07;;;46.77;;
7017;SDS011;3549;42.162;24.726;2023-05-16T03:36:53;97.50;;;43.13;;
7017;SDS011;3549;42.162;24.726;2023-05-16T03:39:18;95.97;;;42.97;;
7017;SDS011;3549;42.162;24.726;2023-05-16T03:41:44;90.67;;;42.80;;
7017;SDS011;3549;42.162;24.726;2023-05-16T03:44:09;90.13;;;43.47;;
7017;SDS011;3549;42.162;24.726;2023-05-16T03:46:34;106.70;;;49.97;;
7017;SDS011;3549;42.162;24.726;2023-05-16T03:49:00;116.60;;;51.73;;
7017;SDS011;3549;42.162;24.726;2023-05-16T03:51:26;125.67;;;60.90;;
7017;SDS011;3549;42.162;24.726;2023-05-16T03:53:52;107.23;;;49.93;;
7017;SDS011;3549;42.162;24.726;2023-05-16T03:56:18;105.83;;;48.17;;
7017;SDS011;3549;42.162;24.726;2023-05-16T03:58:43;96.63;;;46.77;;
7017;SDS011;3549;42.162;24.726;2023-05-16T04:01:08;102.27;;;47.03;;
7017;SDS011;3549;42.162;24.726;2023-05-16T04:03:34;100.70;;;48.43;;
7017;SDS011;3549;42.162;24.726;2023-05-16T04:06:00;123.40;;;52.57;;
7017;SDS011;3549;42.162;24.726;2023-05-16T04:08:25;104.43;;;48.53;;
7017;SDS011;3549;42.162;24.726;2023-05-16T04:10:51;116.03;;;50.03;;
7017;SDS011;3549;42.162;24.726;2023-05-16T04:13:17;96.70;;;45.47;;
7017;SDS011;3549;42.162;24.726;2023-05-16T04:15:42;97.03;;;45.57;;
7017;SDS011;3549;42.162;24.726;2023-05-16T04:18:08;95.93;;;45.60;;
7017;SDS011;3549;42.162;24.726;2023-05-16T04:20:33;104.23;;;46.33;;
7017;SDS011;3549;42.162;24.726;2023-05-16T04:22:59;95.27;;;44.27;;
7017;SDS011;3549;42.162;24.726;2023-05-16T04:25:25;103.80;;;45.20;;
7017;SDS011;3549;42.162;24.726;2023-05-16T04:27:50;98.50;;;44.77;;
7017;SDS011;3549;42.162;24.726;2023-05-16T04:30:16;105.60;;;51.13;;
7017;SDS011;3549;42.162;24.726;2023-05-16T04:32:42;104.77;;;48.77;;
7017;SDS011;3549;42.162;24.726;2023-05-16T04:35:07;108.77;;;54.67;;
7017;SDS011;3549;42.162;24.726;2023-05-16T04:37:33;131.87;;;61.93;;
7017;SDS011;3549;42.162;24.726;2023-05-16T04:39:59;134.23;;;62.80;;
7017;SDS011;3549;42.162;24.726;2023-05-16T04:42:24;135.93;;;69.13;;
7017;SDS011;3549;42.162;24.726;2023-05-16T04:44:50;137.47;;;66.97;;
7017;SDS011;3549;42.162;24.726;2023-05-16T04:47:16;114.97;;;55.37;;
7017;SDS011;3549;42.162;24.726;2023-05-16T04:49:42;100.60;;;45.43;;
7017;SDS011;3549;42.162;24.726;2023-05-16T04:52:07;97.30;;;45.23;;
7017;SDS011;3549;42.162;24.726;2023-05-16T04:54:33;88.63;;;43.37;;
7017;SDS011;3549;42.162;24.726;2023-05-16T04:56:58;94.17;;;45.70;;
7017;SDS011;3549;42.162;24.726;2023-05-16T04:59:24;90.50;;;42.57;;
7017;SDS011;3549;42.162;24.726;2023-05-16T05:01:49;94.07;;;43.43;;
7017;SDS011;3549;42.162;24.726;2023-05-16T05:04:15;98.07;;;43.17;;
7017;SDS011;3549;42.162;24.726;2023-05-16T05:06:41;84.37;;;43.00;;
7017;SDS011;3549;42.162;24.726;2023-05-16T05:09:07;89.67;;;44.33;;
7017;SDS011;3549;42.162;24.726;2023-05-16T05:11:33;82.43;;;42.97;;
7017;SDS011;3549;42.162;24.726;2023-05-16T05:13:58;86.40;;;42.77;;
7017;SDS011;3549;42.162;24.726;2023-05-16T05:16:23;92.20;;;44.77;;
7017;SDS011;3549;42.162;24.726;2023-05-16T05:18:49;100.60;;;47.70;;
7017;SDS011;3549;42.162;24.726;2023-05-16T05:21:14;84.03;;;44.97;;
7017;SDS011;3549;42.162;24.726;2023-05-16T05:23:40;94.87;;;46.20;;
7017;SDS011;3549;42.162;24.726;2023-05-16T05:26:05;83.30;;;44.53;;
7017;SDS011;3549;42.162;24.726;2023-05-16T05:28:30;66.80;;;38.80;;
7017;SDS011;3549;42.162;24.726;2023-05-16T05:30:56;64.73;;;37.50;;
7017;SDS011;3549;42.162;24.726;2023-05-16T05:33:25;66.30;;;35.97;;
7017;SDS011;3549;42.162;24.726;2023-05-16T05:35:53;57.37;;;34.70;;
7017;SDS011;3549;42.162;24.726;2023-05-16T05:38:19;62.47;;;35.07;;
7017;SDS011;3549;42.162;24.726;2023-05-16T05:40:44;59.53;;;34.20;;
7017;SDS011;3549;42.162;24.726;2023-05-16T05:43:10;54.73;;;31.77;;
7017;SDS011;3549;42.162;24.726;2023-05-16T05:45:36;52.70;;;32.30;;
7017;SDS011;3549;42.162;24.726;2023-05-16T05:48:01;47.50;;;29.17;;
7017;SDS011;3549;42.162;24.726;2023-05-16T05:50:27;48.43;;;29.10;;
7017;SDS011;3549;42.162;24.726;2023-05-16T05:52:53;45.47;;;28.30;;
7017;SDS011;3549;42.162;24.726;2023-05-16T05:55:19;46.47;;;27.30;;
7017;SDS011;3549;42.162;24.726;2023-05-16T05:57:45;38.50;;;25.87;;
7017;SDS011;3549;42.162;24.726;2023-05-16T06:00:10;40.40;;;25.23;;
7017;SDS011;3549;42.162;24.726;2023-05-16T06:02:36;45.03;;;26.60;;
7017;SDS011;3549;42.162;24.726;2023-05-16T06:05:01;41.07;;;26.00;;
7017;SDS011;3549;42.162;24.726;2023-05-16T06:07:27;42.40;;;26.63;;
7017;SDS011;3549;42.162;24.726;2023-05-16T06:09:52;36.87;;;24.53;;
7017;SDS011;3549;42.162;24.726;2023-05-16T06:12:18;41.63;;;24.43;;
7017;SDS011;3549;42.162;24.726;2023-05-16T06:14:43;37.83;;;24.20;;
7017;SDS011;3549;42.162;24.726;2023-05-16T06:17:08;40.70;;;24.47;;
7017;SDS011;3549;42.162;24.726;2023-05-16T06:19:34;37.57;;;24.27;;
7017;SDS011;3549;42.162;24.726;2023-05-16T06:21:59;35.20;;;23.27;;
7017;SDS011;3549;42.162;24.726;2023-05-16T06:24:25;35.63;;;22.60;;
7017;SDS011;3549;42.162;24.726;2023-05-16T06:26:50;33.87;;;22.07;;
7017;SDS011;3549;42.162;24.726;2023-05-16T06:29:16;34.23;;;20.57;;
7017;SDS011;3549;42.162;24.726;2023-05-16T06:31:42;38.27;;;24.67;;
7017;SDS011;3549;42.162;24.726;2023-05-16T06:34:07;39.97;;;23.80;;
7017;SDS011;3549;42.162;24.726;2023-05-16T06:36:33;35.50;;;20.50;;
7017;SDS011;3549;42.162;24.726;2023-05-16T06:38:58;37.40;;;20.87;;
7017;SDS011;3549;42.162;24.726;2023-05-16T06:41:24;37.23;;;22.00;;
7017;SDS011;3549;42.162;24.726;2023-05-16T06:43:50;30.03;;;19.80;;
7017;SDS011;3549;42.162;24.726;2023-05-16T06:46:16;34.43;;;21.20;;
7017;SDS011;3549;42.162;24.726;2023-05-16T06:48:41;34.50;;;20.87;;
7017;SDS011;3549;42.162;24.726;2023-05-16T06:51:07;34.03;;;21.23;;
7017;SDS011;3549;42.162;24.726;2023-05-16T06:53:32;31.70;;;20.37;;
7017;SDS011;3549;42.162;24.726;2023-05-16T06:55:57;32.53;;;20.10;;
7017;SDS011;3549;42.162;24.726;2023-05-16T06:58:23;28.30;;;18.87;;
7017;SDS011;3549;42.162;24.726;2023-05-16T07:00:49;30.70;;;18.73;;
7017;SDS011;3549;42.162;24.726;2023-05-16T07:03:14;25.83;;;19.00;;
7017;SDS011;3549;42.162;24.726;2023-05-16T07:05:40;26.07;;;18.40;;
7017;SDS011;3549;42.162;24.726;2023-05-16T07:08:07;22.57;;;17.30;;
7017;SDS011;3549;42.162;24.726;2023-05-16T07:10:34;24.87;;;17.87;;
7017;SDS011;3549;42.162;24.726;2023-05-16T07:12:59;30.57;;;18.87;;
7017;SDS011;3549;42.162;24.726;2023-05-16T07:15:25;25.30;;;17.77;;
7017;SDS011;3549;42.162;24.726;2023-05-16T07:17:51;27.67;;;17.87;;
7017;SDS011;3549;42.162;24.726;2023-05-16T07:20:16;25.57;;;18.07;;
7017;SDS011;3549;42.162;24.726;2023-05-16T07:22:42;27.00;;;17.43;;
7017;SDS011;3549;42.162;24.726;2023-05-16T07:25:07;24.23;;;17.27;;
7017;SDS011;3549;42.162;24.726;2023-05-16T07:27:36;27.77;;;18.50;;
7017;SDS011;3549;42.162;24.726;2023-05-16T07:30:12;24.83;;;18.40;;
7017;SDS011;3549;42.162;24.726;2023-05-16T07:32:38;33.17;;;18.23;;
7017;SDS011;3549;42.162;24.726;2023-05-16T07:35:04;27.43;;;19.63;;
7017;SDS011;3549;42.162;24.726;2023-05-16T07:37:29;25.93;;;18.07;;
7017;SDS011;3549;42.162;24.726;2023-05-16T07:39:55;28.07;;;19.00;;
7017;SDS011;3549;42.162;24.726;2023-05-16T07:42:20;27.90;;;18.93;;
7017;SDS011;3549;42.162;24.726;2023-05-16T07:44:46;27.53;;;19.23;;
7017;SDS011;3549;42.162;24.726;2023-05-16T07:47:11;25.30;;;18.83;;
7017;SDS011;3549;42.162;24.726;2023-05-16T07:49:37;30.87;;;20.30;;
7017;SDS011;3549;42.162;24.726;2023-05-16T07:52:02;28.20;;;18.43;;
7017;SDS011;3549;42.162;24.726;2023-05-16T07:54:29;26.70;;;18.50;;
7017;SDS011;3549;42.162;24.726;2023-05-16T07:56:56;23.07;;;17.80;;
7017;SDS011;3549;42.162;24.726;2023-05-16T07:59:24;25.73;;;18.67;;
7017;SDS011;3549;42.162;24.726;2023-05-16T08:01:50;27.13;;;18.13;;
7017;SDS011;3549;42.162;24.726;2023-05-16T08:04:15;28.37;;;18.80;;
7017;SDS011;3549;42.162;24.726;2023-05-16T08:06:41;27.73;;;19.40;;
7017;SDS011;3549;42.162;24.726;2023-05-16T08:09:06;30.80;;;19.37;;
7017;SDS011;3549;42.162;24.726;2023-05-16T08:11:33;32.30;;;21.00;;
7017;SDS011;3549;42.162;24.726;2023-05-16T08:13:59;32.53;;;20.97;;
7017;SDS011;3549;42.162;24.726;2023-05-16T08:16:24;29.17;;;20.43;;
7017;SDS011;3549;42.162;24.726;2023-05-16T08:18:49;25.80;;;19.13;;
7017;SDS011;3549;42.162;24.726;2023-05-16T08:21:15;29.20;;;19.37;;
7017;SDS011;3549;42.162;24.726;2023-05-16T08:23:40;28.77;;;18.13;;
7017;SDS011;3549;42.162;24.726;2023-05-16T08:26:06;29.93;;;19.53;;
7017;SDS011;3549;42.162;24.726;2023-05-16T08:28:32;27.47;;;19.40;;
7017;SDS011;3549;42.162;24.726;2023-05-16T08:30:57;29.37;;;19.07;;
7017;SDS011;3549;42.162;24.726;2023-05-16T08:33:23;31.73;;;19.93;;
7017;SDS011;3549;42.162;24.726;2023-05-16T08:35:49;30.00;;;18.93;;
7017;SDS011;3549;42.162;24.726;2023-05-16T08:38:16;25.40;;;19.03;;
7017;SDS011;3549;42.162;24.726;2023-05-16T08:40:42;29.63;;;18.77;;
7017;SDS011;3549;42.162;24.726;2023-05-16T08:43:07;24.20;;;18.13;;
7017;SDS011;3549;42.162;24.726;2023-05-16T08:45:33;26.50;;;17.97;;
7017;SDS011;3549;42.162;24.726;2023-05-16T08:47:59;27.73;;;18.63;;
7017;SDS011;3549;42.162;24.726;2023-05-16T08:50:25;23.80;;;18.23;;
7017;SDS011;3549;42.162;24.726;2023-05-16T08:52:55;25.23;;;18.77;;
7017;SDS011;3549;42.162;24.726;2023-05-16T08:55:21;28.33;;;19.17;;
7017;SDS011;3549;42.162;24.726;2023-05-16T08:57:48;26.03;;;18.80;;
7017;SDS011;3549;42.162;24.726;2023-05-16T09:00:15;30.57;;;18.50;;
7017;SDS011;3549;42.162;24.726;2023-05-16T09:02:43;28.07;;;18.93;;
7017;SDS011;3549;42.162;24.726;2023-05-16T09:05:13;26.47;;;18.80;;
7017;SDS011;3549;42.162;24.726;2023-05-16T09:07:40;27.40;;;19.23;;
7017;SDS011;3549;42.162;24.726;2023-05-16T09:10:07;27.03;;;19.27;;
7017;SDS011;3549;42.162;24.726;2023-05-16T09:12:33;26.07;;;18.47;;
7017;SDS011;3549;42.162;24.726;2023-05-16T09:15:02;24.80;;;18.93;;
7017;SDS011;3549;42.162;24.726;2023-05-16T09:17:36;23.77;;;18.33;;
7017;SDS011;3549;42.162;24.726;2023-05-16T09:20:09;24.90;;;17.97;;
7017;SDS011;3549;42.162;24.726;2023-05-16T09:22:36;24.30;;;17.87;;
7017;SDS011;3549;42.162;24.726;2023-05-16T09:25:02;23.83;;;17.67;;
7017;SDS011;3549;42.162;24.726;2023-05-16T09:27:29;24.00;;;17.33;;
7017;SDS011;3549;42.162;24.726;2023-05-16T09:29:56;22.37;;;16.77;;
7017;SDS011;3549;42.162;24.726;2023-05-16T09:32:22;21.93;;;16.90;;
7017;SDS011;3549;42.162;24.726;2023-05-16T09:34:48;23.23;;;17.13;;
7017;SDS011;3549;42.162;24.726;2023-05-16T09:37:15;23.73;;;16.57;;
7017;SDS011;3549;42.162;24.726;2023-05-16T09:39:45;22.83;;;17.00;;
7017;SDS011;3549;42.162;24.726;2023-05-16T09:42:16;23.67;;;16.67;;
7017;SDS011;3549;42.162;24.726;2023-05-16T09:44:45;23.20;;;18.07;;
7017;SDS011;3549;42.162;24.726;2023-05-16T09:47:17;25.93;;;17.87;;
7017;SDS011;3549;42.162;24.726;2023-05-16T09:49:47;25.10;;;18.17;;
7017;SDS011;3549;42.162;24.726;2023-05-16T09:52:16;24.00;;;17.70;;
7017;SDS011;3549;42.162;24.726;2023-05-16T09:54:43;23.20;;;18.07;;
7017;SDS011;3549;42.162;24.726;2023-05-16T09:57:10;25.33;;;17.90;;
7017;SDS011;3549;42.162;24.726;2023-05-16T09:59:38;24.37;;;18.80;;
7017;SDS011;3549;42.162;24.726;2023-05-16T10:02:05;23.03;;;17.60;;
7017;SDS011;3549;42.162;24.726;2023-05-16T10:04:32;22.43;;;18.03;;
7017;SDS011;3549;42.162;24.726;2023-05-16T10:07:00;23.07;;;17.80;;
7017;SDS011;3549;42.162;24.726;2023-05-16T10:09:28;24.43;;;18.03;;
7017;SDS011;3549;42.162;24.726;2023-05-16T10:11:56;23.43;;;18.00;;
7017;SDS011;3549;42.162;24.726;2023-05-16T10:14:27;25.97;;;18.17;;
7017;SDS011;3549;42.162;24.726;2023-05-16T10:16:52;23.73;;;18.10;;
7017;SDS011;3549;42.162;24.726;2023-05-16T10:19:19;24.17;;;18.20;;
7017;SDS011;3549;42.162;24.726;2023-05-16T10:21:50;22.77;;;17.63;;
7017;SDS011;3549;42.162;24.726;2023-05-16T10:24:23;23.43;;;17.43;;
7017;SDS011;3549;42.162;24.726;2023-05-16T10:26:53;23.00;;;18.83;;
7017;SDS011;3549;42.162;24.726;2023-05-16T10:29:18;24.80;;;19.17;;
7017;SDS011;3549;42.162;24.726;2023-05-16T10:31:45;25.07;;;19.43;;
7017;SDS011;3549;42.162;24.726;2023-05-16T10:34:11;25.13;;;19.13;;
7017;SDS011;3549;42.162;24.726;2023-05-16T10:36:36;23.17;;;19.03;;
7017;SDS011;3549;42.162;24.726;2023-05-16T10:39:03;23.47;;;19.03;;
7017;SDS011;3549;42.162;24.726;2023-05-16T10:41:29;24.10;;;19.03;;
7017;SDS011;3549;42.162;24.726;2023-05-16T10:43:55;25.97;;;19.10;;
7017;SDS011;3549;42.162;24.726;2023-05-16T10:46:22;23.47;;;19.33;;
7017;SDS011;3549;42.162;24.726;2023-05-16T10:48:49;23.07;;;19.13;;
7017;SDS011;3549;42.162;24.726;2023-05-16T10:53:45;26.10;;;19.50;;
7017;SDS011;3549;42.162;24.726;2023-05-16T10:56:11;24.20;;;19.80;;
7017;SDS011;3549;42.162;24.726;2023-05-16T11:01:25;27.63;;;21.00;;
7017;SDS011;3549;42.162;24.726;2023-05-16T11:06:28;26.03;;;19.30;;
7017;SDS011;3549;42.162;24.726;2023-05-16T11:11:38;28.80;;;21.70;;
7017;SDS011;3549;42.162;24.726;2023-05-16T11:14:32;27.77;;;22.07;;
7017;SDS011;3549;42.162;24.726;2023-05-16T11:19:52;29.80;;;21.63;;
7017;SDS011;3549;42.162;24.726;2023-05-16T11:22:27;29.90;;;21.37;;
7017;SDS011;3549;42.162;24.726;2023-05-16T11:25:03;28.50;;;21.80;;
7017;SDS011;3549;42.162;24.726;2023-05-16T11:27:31;31.17;;;22.13;;
7017;SDS011;3549;42.162;24.726;2023-05-16T11:32:35;26.03;;;21.33;;
7017;SDS011;3549;42.162;24.726;2023-05-16T11:35:02;27.43;;;20.67;;
7017;SDS011;3549;42.162;24.726;2023-05-16T11:37:29;30.17;;;21.13;;
7017;SDS011;3549;42.162;24.726;2023-05-16T11:39:58;27.50;;;20.97;;
7017;SDS011;3549;42.162;24.726;2023-05-16T11:42:28;30.47;;;21.00;;
7017;SDS011;3549;42.162;24.726;2023-05-16T11:47:37;28.63;;;20.60;;
7017;SDS011;3549;42.162;24.726;2023-05-16T11:50:11;26.80;;;20.60;;
7017;SDS011;3549;42.162;24.726;2023-05-16T11:52:41;24.77;;;19.60;;
7017;SDS011;3549;42.162;24.726;2023-05-16T11:55:08;30.87;;;20.37;;
7017;SDS011;3549;42.162;24.726;2023-05-16T11:57:35;25.03;;;20.30;;
7017;SDS011;3549;42.162;24.726;2023-05-16T12:00:13;26.03;;;20.00;;
7017;SDS011;3549;42.162;24.726;2023-05-16T12:02:40;26.67;;;19.80;;
7017;SDS011;3549;42.162;24.726;2023-05-16T12:05:09;28.37;;;20.40;;
7017;SDS011;3549;42.162;24.726;2023-05-16T12:07:50;25.90;;;19.83;;
7017;SDS011;3549;42.162;24.726;2023-05-16T12:10:23;25.40;;;19.95;;
7017;SDS011;3549;42.162;24.726;2023-05-16T12:12:49;25.48;;;19.70;;
7017;SDS011;3549;42.162;24.726;2023-05-16T12:15:16;28.43;;;22.07;;
7017;SDS011;3549;42.162;24.726;2023-05-16T12:17:43;30.90;;;21.10;;
7017;SDS011;3549;42.162;24.726;2023-05-16T12:20:09;27.17;;;20.50;;
7017;SDS011;3549;42.162;24.726;2023-05-16T12:22:45;26.00;;;20.50;;
7017;SDS011;3549;42.162;24.726;2023-05-16T12:25:20;27.93;;;19.73;;
7017;SDS011;3549;42.162;24.726;2023-05-16T12:27:46;26.67;;;19.20;;
7017;SDS011;3549;42.162;24.726;2023-05-16T12:30:12;26.37;;;19.30;;
7017;SDS011;3549;42.162;24.726;2023-05-16T12:32:37;26.13;;;18.75;;
7017;SDS011;3549;42.162;24.726;2023-05-16T12:35:03;24.42;;;19.15;;
7017;SDS011;3549;42.162;24.726;2023-05-16T12:37:29;25.65;;;19.02;;
7017;SDS011;3549;42.162;24.726;2023-05-16T12:40:00;26.17;;;18.60;;
7017;SDS011;3549;42.162;24.726;2023-05-16T12:42:28;24.75;;;18.70;;
7017;SDS011;3549;42.162;24.726;2023-05-16T12:44:54;23.63;;;17.75;;
7017;SDS011;3549;42.162;24.726;2023-05-16T12:47:20;25.00;;;17.92;;
7017;SDS011;3549;42.162;24.726;2023-05-16T12:49:46;21.52;;;16.88;;
7017;SDS011;3549;42.162;24.726;2023-05-16T12:52:19;21.00;;;16.08;;
7017;SDS011;3549;42.162;24.726;2023-05-16T12:54:45;24.05;;;16.88;;
7017;SDS011;3549;42.162;24.726;2023-05-16T12:57:12;24.05;;;15.88;;
7017;SDS011;3549;42.162;24.726;2023-05-16T12:59:38;22.05;;;16.40;;
7017;SDS011;3549;42.162;24.726;2023-05-16T13:02:03;19.33;;;16.38;;
7017;SDS011;3549;42.162;24.726;2023-05-16T13:04:29;20.05;;;16.30;;
7017;SDS011;3549;42.162;24.726;2023-05-16T13:06:55;28.35;;;19.42;;
7017;SDS011;3549;42.162;24.726;2023-05-16T13:09:21;23.48;;;16.63;;
7017;SDS011;3549;42.162;24.726;2023-05-16T13:11:47;23.25;;;16.45;;
7017;SDS011;3549;42.162;24.726;2023-05-16T13:14:13;23.75;;;17.17;;
7017;SDS011;3549;42.162;24.726;2023-05-16T13:16:38;25.25;;;17.35;;
7017;SDS011;3549;42.162;24.726;2023-05-16T13:19:04;32.38;;;20.02;;
7017;SDS011;3549;42.162;24.726;2023-05-16T13:21:30;23.27;;;19.08;;
7017;SDS011;3549;42.162;24.726;2023-05-16T13:23:56;24.33;;;18.83;;
7017;SDS011;3549;42.162;24.726;2023-05-16T13:26:23;25.80;;;19.33;;
7017;SDS011;3549;42.162;24.726;2023-05-16T13:28:48;26.00;;;18.40;;
7017;SDS011;3549;42.162;24.726;2023-05-16T13:31:20;24.88;;;19.13;;
7017;SDS011;3549;42.162;24.726;2023-05-16T13:33:48;26.58;;;18.15;;
7017;SDS011;3549;42.162;24.726;2023-05-16T13:36:14;24.33;;;17.75;;
7017;SDS011;3549;42.162;24.726;2023-05-16T13:38:42;23.25;;;18.25;;
7017;SDS011;3549;42.162;24.726;2023-05-16T13:41:08;22.08;;;18.88;;
7017;SDS011;3549;42.162;24.726;2023-05-16T13:43:34;25.38;;;17.95;;
7017;SDS011;3549;42.162;24.726;2023-05-16T13:46:00;24.50;;;17.50;;
7017;SDS011;3549;42.162;24.726;2023-05-16T13:48:25;20.80;;;17.40;;
7017;SDS011;3549;42.162;24.726;2023-05-16T13:50:51;23.52;;;18.75;;
7017;SDS011;3549;42.162;24.726;2023-05-16T13:53:17;21.33;;;17.27;;
7017;SDS011;3549;42.162;24.726;2023-05-16T13:55:42;20.65;;;17.70;;
7017;SDS011;3549;42.162;24.726;2023-05-16T13:58:08;22.98;;;17.00;;
7017;SDS011;3549;42.162;24.726;2023-05-16T14:00:34;24.80;;;18.13;;
7017;SDS011;3549;42.162;24.726;2023-05-16T14:03:01;21.10;;;17.73;;
7017;SDS011;3549;42.162;24.726;2023-05-16T14:05:27;24.35;;;18.42;;
7017;SDS011;3549;42.162;24.726;2023-05-16T14:07:53;23.90;;;18.38;;
7017;SDS011;3549;42.162;24.726;2023-05-16T14:10:18;24.23;;;18.63;;
7017;SDS011;3549;42.162;24.726;2023-05-16T14:12:43;27.15;;;19.45;;
7017;SDS011;3549;42.162;24.726;2023-05-16T14:15:09;23.00;;;18.65;;
7017;SDS011;3549;42.162;24.726;2023-05-16T14:17:35;28.70;;;21.05;;
7017;SDS011;3549;42.162;24.726;2023-05-16T14:20:00;28.65;;;20.20;;
7017;SDS011;3549;42.162;24.726;2023-05-16T14:22:25;30.05;;;20.02;;
7017;SDS011;3549;42.162;24.726;2023-05-16T14:24:52;31.65;;;20.20;;
7017;SDS011;3549;42.162;24.726;2023-05-16T14:27:17;27.00;;;19.33;;
7017;SDS011;3549;42.162;24.726;2023-05-16T14:29:43;25.05;;;19.90;;
7017;SDS011;3549;42.162;24.726;2023-05-16T14:32:09;32.13;;;22.80;;
7017;SDS011;3549;42.162;24.726;2023-05-16T14:34:35;37.03;;;26.77;;
7017;SDS011;3549;42.162;24.726;2023-05-16T14:37:00;32.88;;;23.70;;
7017;SDS011;3549;42.162;24.726;2023-05-16T14:39:25;33.60;;;25.00;;
7017;SDS011;3549;42.162;24.726;2023-05-16T14:41:51;38.40;;;27.37;;
7017;SDS011;3549;42.162;24.726;2023-05-16T14:44:16;37.73;;;27.43;;
7017;SDS011;3549;42.162;24.726;2023-05-16T14:46:43;42.83;;;30.97;;
7017;SDS011;3549;42.162;24.726;2023-05-16T14:49:08;43.00;;;31.37;;
7017;SDS011;3549;42.162;24.726;2023-05-16T14:51:34;37.77;;;28.20;;
7017;SDS011;3549;42.162;24.726;2023-05-16T14:53:59;42.40;;;30.47;;
7017;SDS011;3549;42.162;24.726;2023-05-16T14:56:25;39.73;;;29.23;;
7017;SDS011;3549;42.162;24.726;2023-05-16T14:58:52;39.70;;;29.00;;
7017;SDS011;3549;42.162;24.726;2023-05-16T15:01:17;45.33;;;30.73;;